createdAt,value
2022-08-25T00:02:56.661Z,97.34
2022-08-25T00:06:00.469Z,97.22
2022-08-25T00:09:06.035Z,97.56
2022-08-25T00:12:08.802Z,98.22
2022-08-25T00:15:11.267Z,98.64
2022-08-25T00:18:19.941Z,98.42
2022-08-25T00:21:22.630Z,98.33
2022-08-25T00:24:25.370Z,98.23
2022-08-25T00:27:28.253Z,98.17
2022-08-25T00:30:30.579Z,98.28
2022-08-25T00:33:32.583Z,98.34
2022-08-25T00:36:34.530Z,98.78
2022-08-25T00:39:37.617Z,98.71
2022-08-25T00:42:40.370Z,99.02
2022-08-25T00:45:42.314Z,98.85
2022-08-25T00:48:45.931Z,98.69
2022-08-25T00:51:54.880Z,98.27
2022-08-25T00:55:08.172Z,98.16
2022-08-25T00:58:16.963Z,98.04
2022-08-25T01:01:18.985Z,98.56
2022-08-25T01:04:21.306Z,98.07
2022-08-25T01:07:24.149Z,97.70
2022-08-25T01:10:26.653Z,98.21
2022-08-25T01:13:38.904Z,98.12
2022-08-25T01:16:43.399Z,98.15
2022-08-25T01:19:45.269Z,97.72
2022-08-25T01:22:55.105Z,97.87
2022-08-25T01:26:04.224Z,97.84
2022-08-25T01:29:25.522Z,98.05
2022-08-25T01:32:27.564Z,98.58
2022-08-25T01:35:29.610Z,98.70
2022-08-25T01:38:31.592Z,98.87
2022-08-25T01:41:59.119Z,98.94
2022-08-25T01:45:01.057Z,99.05
2022-08-25T01:48:04.013Z,98.87
2022-08-25T01:51:06.267Z,98.57
2022-08-25T01:54:08.228Z,98.64
2022-08-25T01:57:10.129Z,98.80
2022-08-25T02:00:14.540Z,98.80
2022-08-25T02:03:19.113Z,98.65
2022-08-25T02:06:33.114Z,98.47
2022-08-25T02:09:36.558Z,98.41
2022-08-25T02:12:38.410Z,98.50
2022-08-25T02:15:43.190Z,98.90
2022-08-25T02:18:45.714Z,98.95
2022-08-25T02:21:47.921Z,98.92
2022-08-25T02:24:50.205Z,98.84
2022-08-25T02:27:51.954Z,98.85
2022-08-25T02:30:58.537Z,99.39
2022-08-25T02:34:04.331Z,99.39
2022-08-25T02:37:06.295Z,99.04
2022-08-25T02:40:09.568Z,99.03
2022-08-25T02:43:11.549Z,99.34
2022-08-25T02:46:13.579Z,99.06
2022-08-25T02:49:15.563Z,99.24
2022-08-25T02:52:17.685Z,99.39
2022-08-25T02:55:19.588Z,99.42
2022-08-25T02:58:21.997Z,99.44
2022-08-25T03:01:28.694Z,99.47
2022-08-25T03:04:32.296Z,99.49
2022-08-25T03:07:35.630Z,99.63
2022-08-25T03:10:37.717Z,99.62
2022-08-25T03:13:40.116Z,99.93
2022-08-25T03:16:42.936Z,100.00
2022-08-25T03:19:48.361Z,100.00
2022-08-25T03:22:50.621Z,100.00
2022-08-25T03:26:13.863Z,100.00
2022-08-25T03:29:15.673Z,100.00
2022-08-25T03:32:18.104Z,100.00
2022-08-25T03:35:20.185Z,100.00
2022-08-25T03:38:23.660Z,100.00
2022-08-25T03:41:32.730Z,100.00
2022-08-25T03:44:34.592Z,100.00
2022-08-25T03:47:36.420Z,100.00
2022-08-25T03:50:44.625Z,100.00
2022-08-25T03:53:54.436Z,100.00
2022-08-25T03:56:56.236Z,100.00
2022-08-25T03:59:57.982Z,100.00
2022-08-25T04:02:59.749Z,100.00
2022-08-25T04:06:03.542Z,100.00
2022-08-25T04:09:05.469Z,100.00
2022-08-25T04:12:07.461Z,100.00
2022-08-25T04:15:09.822Z,100.00
2022-08-25T04:18:13.476Z,100.00
2022-08-25T04:21:15.728Z,100.00
2022-08-25T04:24:17.665Z,100.00
2022-08-25T04:27:20.198Z,100.00
2022-08-25T04:30:22.100Z,100.00
2022-08-25T04:33:23.897Z,100.00
2022-08-25T04:36:25.654Z,100.00
2022-08-25T04:39:27.398Z,100.00
2022-08-25T04:42:29.255Z,100.00
2022-08-25T04:45:31.242Z,100.00
2022-08-25T04:48:33.737Z,100.00
2022-08-25T04:51:39.776Z,100.00
2022-08-25T04:54:42.215Z,100.00
2022-08-25T04:57:44.222Z,100.00
2022-08-25T05:00:46.928Z,100.00
2022-08-25T05:03:54.170Z,100.00
2022-08-25T05:06:56.961Z,100.00
2022-08-25T05:09:58.905Z,100.00
2022-08-25T05:13:01.298Z,100.00
2022-08-25T05:16:04.203Z,100.00
2022-08-25T05:19:07.372Z,100.00
2022-08-25T05:22:09.170Z,100.00
2022-08-25T05:25:11.070Z,100.00
2022-08-25T05:28:13.378Z,100.00
2022-08-25T05:31:15.400Z,100.00
2022-08-25T05:34:19.121Z,100.00
2022-08-25T05:37:20.921Z,100.00
2022-08-25T05:40:23.721Z,100.00
2022-08-25T05:43:25.509Z,100.00
2022-08-25T05:46:27.471Z,100.00
2022-08-25T05:49:33.631Z,100.00
2022-08-25T05:52:36.321Z,100.00
2022-08-25T05:55:38.146Z,100.00
2022-08-25T05:58:40.934Z,100.00
2022-08-25T06:02:02.213Z,100.00
2022-08-25T06:05:05.134Z,100.00
2022-08-25T06:08:07.305Z,100.00
2022-08-25T06:11:09.469Z,100.00
2022-08-25T06:14:11.784Z,100.00
2022-08-25T06:17:13.709Z,100.00
2022-08-25T06:20:18.796Z,100.00
2022-08-25T06:23:24.070Z,100.00
2022-08-25T06:26:26.478Z,100.00
2022-08-25T06:29:28.381Z,100.00
2022-08-25T06:32:37.860Z,100.00
2022-08-25T06:35:43.889Z,100.00
2022-08-25T06:38:47.048Z,100.00
2022-08-25T06:41:53.816Z,100.00
2022-08-25T06:44:55.590Z,99.71
2022-08-25T06:47:59.401Z,98.86
2022-08-25T06:51:06.107Z,98.60
2022-08-25T06:54:10.336Z,98.73
2022-08-25T06:57:12.014Z,96.60
2022-08-25T07:00:14.528Z,95.45
2022-08-25T07:03:16.789Z,93.77
2022-08-25T07:06:18.820Z,94.42
2022-08-25T07:09:20.819Z,96.63
2022-08-25T07:12:24.750Z,97.56
2022-08-25T07:15:27.732Z,96.85
2022-08-25T07:18:29.887Z,95.49
2022-08-25T07:21:35.648Z,95.38
2022-08-25T07:24:37.786Z,95.85
2022-08-25T07:27:41.260Z,94.53
2022-08-25T07:30:45.147Z,94.86
2022-08-25T07:34:12.408Z,94.18
2022-08-25T07:37:32.300Z,94.23
2022-08-25T07:40:43.050Z,93.54
2022-08-25T07:43:45.012Z,94.60
2022-08-25T07:46:46.907Z,94.31
2022-08-25T07:49:48.723Z,93.91
2022-08-25T07:53:05.392Z,93.44
2022-08-25T07:56:12.390Z,90.98
2022-08-25T07:59:14.421Z,90.19
2022-08-25T08:02:18.975Z,89.46
2022-08-25T08:05:24.005Z,89.28
2022-08-25T08:08:26.210Z,86.45
2022-08-25T08:11:45.120Z,85.85
2022-08-25T08:14:53.902Z,85.44
2022-08-25T08:17:56.509Z,84.65
2022-08-25T08:21:00.077Z,85.56
2022-08-25T08:24:05.045Z,86.51
2022-08-25T08:27:13.768Z,86.42
2022-08-25T08:30:15.627Z,85.15
2022-08-25T08:33:17.355Z,83.99
2022-08-25T08:36:19.685Z,85.18
2022-08-25T08:39:22.606Z,84.17
2022-08-25T08:43:18.563Z,82.20
2022-08-25T08:46:22.666Z,82.06
2022-08-25T08:49:35.256Z,80.77
2022-08-25T08:52:53.927Z,80.02
2022-08-25T08:55:58.009Z,80.70
2022-08-25T08:59:06.854Z,80.09
2022-08-25T09:02:38.858Z,79.98
2022-08-25T09:05:47.254Z,80.14
2022-08-25T09:08:49.228Z,80.81
2022-08-25T09:12:17.197Z,80.50
2022-08-25T09:16:06.010Z,78.61
2022-08-25T09:19:27.332Z,78.03
2022-08-25T09:23:20.201Z,79.09
2022-08-25T09:26:54.773Z,79.36
2022-08-25T09:30:05.322Z,78.32
2022-08-25T09:33:08.168Z,77.55
2022-08-25T09:36:10.203Z,76.38
2022-08-25T09:39:12.378Z,73.92
2022-08-25T09:42:14.417Z,73.45
2022-08-25T09:45:16.460Z,73.46
2022-08-25T09:48:40.744Z,74.01
2022-08-25T09:51:44.425Z,74.18
2022-08-25T09:54:46.807Z,74.69
2022-08-25T09:57:52.918Z,74.69
2022-08-25T10:01:03.893Z,73.95
2022-08-25T10:04:07.038Z,72.00
2022-08-25T10:07:26.736Z,72.39
2022-08-25T10:10:32.722Z,73.25
2022-08-25T10:13:44.366Z,73.97
2022-08-25T10:16:47.655Z,72.76
2022-08-25T10:19:49.933Z,72.04
2022-08-25T10:23:09.937Z,71.24
2022-08-25T10:26:53.546Z,71.15
2022-08-25T10:30:13.478Z,70.30
2022-08-25T10:33:47.633Z,70.66
2022-08-25T10:37:37.777Z,70.16
2022-08-25T10:40:53.349Z,69.55
2022-08-25T10:44:51.114Z,68.61
2022-08-25T10:48:08.242Z,69.36
2022-08-25T10:51:39.473Z,69.03
2022-08-25T10:55:05.382Z,67.47
2022-08-25T10:59:06.435Z,66.90
2022-08-25T11:02:27.308Z,66.65
2022-08-25T11:05:36.991Z,67.00
2022-08-25T11:08:48.941Z,66.80
2022-08-25T11:11:58.218Z,65.97
2022-08-25T11:15:04.161Z,65.45
2022-08-25T11:18:14.539Z,65.41
2022-08-25T11:21:22.260Z,65.83
2022-08-25T11:24:45.369Z,64.82
2022-08-25T11:28:18.378Z,64.46
2022-08-25T11:31:21.822Z,64.14
2022-08-25T11:34:26.533Z,63.72
2022-08-25T11:37:32.359Z,63.94
2022-08-25T11:40:58.943Z,63.55
2022-08-25T11:44:18.975Z,63.80
2022-08-25T11:47:40.085Z,62.66
2022-08-25T11:51:33.755Z,61.55
2022-08-25T11:54:44.742Z,62.69
2022-08-25T11:57:53.217Z,62.66
2022-08-25T12:00:58.535Z,62.40
2022-08-25T12:04:14.858Z,61.92
2022-08-25T12:07:23.765Z,61.73
2022-08-25T12:10:26.354Z,60.72
2022-08-25T12:13:44.997Z,60.72
2022-08-25T12:16:55.772Z,60.65
2022-08-25T12:19:59.735Z,60.60
2022-08-25T12:23:02.482Z,59.72
2022-08-25T12:26:11.062Z,59.96
2022-08-25T12:29:39.349Z,58.83
2022-08-25T12:33:00.712Z,60.13
2022-08-25T12:36:06.547Z,61.42
2022-08-25T12:39:24.654Z,62.41
2022-08-25T12:42:35.549Z,62.07
2022-08-25T12:45:49.018Z,61.88
2022-08-25T12:49:04.826Z,62.31
2022-08-25T12:52:17.164Z,62.14
2022-08-25T12:55:21.102Z,60.78
2022-08-25T12:58:31.215Z,61.31
2022-08-25T13:02:22.164Z,60.63
2022-08-25T13:05:33.577Z,61.39
2022-08-25T13:08:58.113Z,61.21
2022-08-25T13:12:14.261Z,60.73
2022-08-25T13:15:37.512Z,59.22
2022-08-25T13:18:39.784Z,59.26
2022-08-25T13:21:43.324Z,58.87
2022-08-25T13:24:47.589Z,58.90
2022-08-25T13:27:55.880Z,58.57
2022-08-25T13:31:19.065Z,58.70
2022-08-25T13:34:24.245Z,58.82
2022-08-25T13:37:36.414Z,57.96
2022-08-25T13:40:38.463Z,57.87
2022-08-25T13:43:41.026Z,58.18
2022-08-25T13:46:43.112Z,57.80
2022-08-25T13:49:47.387Z,57.53
2022-08-25T13:53:06.523Z,57.49
2022-08-25T13:56:08.734Z,55.78
2022-08-25T13:59:25.243Z,55.63
2022-08-25T14:02:49.873Z,56.40
2022-08-25T14:06:05.418Z,56.58
2022-08-25T14:09:16.551Z,56.34
2022-08-25T14:12:33.751Z,56.66
2022-08-25T14:15:35.744Z,56.86
2022-08-25T14:18:37.933Z,57.64
2022-08-25T14:21:41.033Z,57.38
2022-08-25T14:24:44.014Z,58.09
2022-08-25T14:28:10.725Z,57.45
2022-08-25T14:31:16.644Z,57.56
2022-08-25T14:34:22.407Z,58.01
2022-08-25T14:37:25.855Z,57.46
2022-08-25T14:40:32.048Z,57.69
2022-08-25T14:43:37.186Z,57.99
2022-08-25T14:46:46.595Z,58.20
2022-08-25T14:49:48.921Z,57.76
2022-08-25T14:52:51.943Z,57.41
2022-08-25T14:55:58.848Z,57.33
2022-08-25T14:59:01.261Z,57.42
2022-08-25T15:02:03.066Z,56.63
2022-08-25T15:05:07.210Z,56.48
2022-08-25T15:08:33.040Z,56.50
2022-08-25T15:11:36.262Z,55.91
2022-08-25T15:14:40.841Z,55.72
2022-08-25T15:17:44.793Z,55.49
2022-08-25T15:20:46.504Z,55.10
2022-08-25T15:23:49.577Z,55.01
2022-08-25T15:26:58.651Z,54.91
2022-08-25T15:30:00.420Z,54.74
2022-08-25T15:33:02.319Z,54.87
2022-08-25T15:36:04.079Z,55.03
2022-08-25T15:39:08.025Z,55.30
2022-08-25T15:42:12.270Z,55.30
2022-08-25T15:45:14.558Z,55.66
2022-08-25T15:48:16.331Z,55.71
2022-08-25T15:51:19.065Z,55.93
2022-08-25T15:54:26.670Z,56.09
2022-08-25T15:57:28.979Z,56.37
2022-08-25T16:00:31.816Z,56.40
2022-08-25T16:03:34.549Z,56.56
2022-08-25T16:06:36.879Z,56.70
2022-08-25T16:09:38.735Z,56.97
2022-08-25T16:12:42.666Z,57.25
2022-08-25T16:15:54.211Z,57.21
2022-08-25T16:18:57.083Z,57.41
2022-08-25T16:21:59.833Z,57.60
2022-08-25T16:25:02.692Z,57.72
2022-08-25T16:28:04.452Z,57.95
2022-08-25T16:31:08.718Z,58.34
2022-08-25T16:34:10.773Z,58.42
2022-08-25T16:37:13.785Z,58.38
2022-08-25T16:40:18.651Z,58.55
2022-08-25T16:43:20.412Z,58.69
2022-08-25T16:46:23.801Z,58.78
2022-08-25T16:49:25.881Z,59.00
2022-08-25T16:53:01.393Z,59.20
2022-08-25T16:56:06.591Z,59.30
2022-08-25T16:59:12.262Z,59.73
2022-08-25T17:02:14.518Z,60.21
2022-08-25T17:05:16.413Z,60.52
2022-08-25T17:08:29.356Z,60.66
2022-08-25T17:11:40.214Z,61.03
2022-08-25T17:14:42.310Z,61.81
2022-08-25T17:17:44.125Z,61.90
2022-08-25T17:20:48.682Z,61.87
2022-08-25T17:23:55.524Z,61.97
2022-08-25T17:26:57.212Z,62.47
2022-08-25T17:29:59.392Z,62.57
2022-08-25T17:33:01.477Z,62.88
2022-08-25T17:36:04.845Z,62.84
2022-08-25T17:39:07.820Z,62.74
2022-08-25T17:42:09.550Z,63.08
2022-08-25T17:45:11.229Z,63.47
2022-08-25T17:48:14.025Z,64.04
2022-08-25T17:51:16.310Z,64.12
2022-08-25T17:54:18.164Z,64.77
2022-08-25T17:57:20.048Z,65.23
2022-08-25T18:00:23.909Z,65.78
2022-08-25T18:03:26.410Z,65.97
2022-08-25T18:06:31.122Z,66.32
2022-08-25T18:09:33.221Z,66.44
2022-08-25T18:12:35.833Z,66.99
2022-08-25T18:15:42.610Z,67.41
2022-08-25T18:18:44.930Z,67.75
2022-08-25T18:21:46.794Z,68.15
2022-08-25T18:24:48.496Z,68.34
2022-08-25T18:27:50.713Z,68.69
2022-08-25T18:30:52.633Z,68.92
2022-08-25T18:33:54.877Z,69.27
2022-08-25T18:36:56.641Z,69.63
2022-08-25T18:40:17.526Z,69.80
2022-08-25T18:43:19.648Z,69.95
2022-08-25T18:46:22.693Z,70.07
2022-08-25T18:49:26.892Z,70.42
2022-08-25T18:52:30.914Z,70.79
2022-08-25T18:55:33.562Z,71.13
2022-08-25T18:58:36.056Z,71.63
2022-08-25T19:01:38.085Z,72.33
2022-08-25T19:04:40.302Z,72.94
2022-08-25T19:07:44.073Z,73.43
2022-08-25T19:10:51.531Z,73.63
2022-08-25T19:13:53.474Z,73.89
2022-08-25T19:16:58.007Z,74.14
2022-08-25T19:20:00.338Z,74.23
2022-08-25T19:23:03.648Z,74.60
2022-08-25T19:26:17.172Z,74.83
2022-08-25T19:29:20.217Z,75.21
2022-08-25T19:32:22.194Z,75.20
2022-08-25T19:35:41.248Z,75.58
2022-08-25T19:38:44.707Z,75.79
2022-08-25T19:41:46.970Z,76.29
2022-08-25T19:44:52.726Z,76.37
2022-08-25T19:47:54.612Z,76.57
2022-08-25T19:50:56.515Z,76.93
2022-08-25T19:54:01.586Z,76.92
2022-08-25T19:57:07.873Z,77.00
2022-08-25T20:00:19.551Z,77.23
2022-08-25T20:03:21.687Z,77.62
2022-08-25T20:06:24.122Z,78.07
2022-08-25T20:09:38.829Z,78.58
2022-08-25T20:12:45.298Z,78.55
2022-08-25T20:15:47.279Z,78.65
2022-08-25T20:18:49.574Z,78.64
2022-08-25T20:21:51.434Z,78.85
2022-08-25T20:25:01.834Z,78.96
2022-08-25T20:28:04.415Z,79.07
2022-08-25T20:31:06.488Z,79.31
2022-08-25T20:34:08.989Z,79.37
2022-08-25T20:37:10.876Z,79.14
2022-08-25T20:40:14.953Z,79.12
2022-08-25T20:43:17.419Z,78.97
2022-08-25T20:46:19.648Z,79.46
2022-08-25T20:49:22.156Z,79.82
2022-08-25T20:52:23.986Z,79.90
2022-08-25T20:55:26.605Z,80.17
2022-08-25T20:58:28.674Z,80.26
2022-08-25T21:01:41.376Z,80.50
2022-08-25T21:04:49.014Z,80.96
2022-08-25T21:07:52.250Z,81.32
2022-08-25T21:10:54.213Z,81.57
2022-08-25T21:13:57.730Z,81.70
2022-08-25T21:16:59.619Z,81.90
2022-08-25T21:20:02.508Z,82.13
2022-08-25T21:23:04.328Z,82.07
2022-08-25T21:26:13.860Z,82.47
2022-08-25T21:29:16.644Z,82.68
2022-08-25T21:32:19.542Z,82.78
2022-08-25T21:35:23.576Z,82.94
2022-08-25T21:38:28.575Z,83.00
2022-08-25T21:41:33.069Z,83.31
2022-08-25T21:44:34.804Z,83.64
2022-08-25T21:47:42.578Z,83.86
2022-08-25T21:50:44.749Z,83.87
2022-08-25T21:53:47.705Z,83.96
2022-08-25T21:56:52.435Z,83.94
2022-08-25T21:59:54.993Z,83.93
2022-08-25T22:02:56.718Z,83.85
2022-08-25T22:06:02.506Z,83.81
2022-08-25T22:09:07.747Z,83.87
2022-08-25T22:12:10.486Z,83.70
2022-08-25T22:15:13.620Z,83.53
2022-08-25T22:18:15.786Z,83.72
2022-08-25T22:21:19.677Z,83.78
2022-08-25T22:24:22.250Z,83.83
2022-08-25T22:27:24.273Z,83.79
2022-08-25T22:30:29.367Z,83.58
2022-08-25T22:33:31.457Z,83.72
2022-08-25T22:36:36.375Z,83.71
2022-08-25T22:39:40.211Z,84.05
2022-08-25T22:42:46.093Z,83.95
2022-08-25T22:45:50.304Z,83.83
2022-08-25T22:48:56.276Z,83.79
2022-08-25T22:51:57.990Z,84.00
2022-08-25T22:55:00.260Z,84.27
2022-08-25T22:58:02.109Z,84.15
2022-08-25T23:01:05.498Z,84.11
2022-08-25T23:04:07.813Z,84.09
2022-08-25T23:07:29.941Z,84.19
2022-08-25T23:10:32.711Z,84.19
2022-08-25T23:13:34.774Z,84.09
2022-08-25T23:16:42.223Z,83.61
2022-08-25T23:19:44.122Z,82.93
2022-08-25T23:22:46.038Z,82.03
2022-08-25T23:25:52.853Z,81.99
2022-08-25T23:28:54.565Z,82.45
2022-08-25T23:31:57.698Z,83.34
2022-08-25T23:34:59.614Z,84.08
2022-08-25T23:38:02.008Z,85.00
2022-08-25T23:41:08.337Z,85.55
2022-08-25T23:44:11.578Z,85.79
2022-08-25T23:47:14.207Z,86.30
2022-08-25T23:50:16.099Z,86.31
2022-08-25T23:53:21.625Z,86.51
2022-08-25T23:56:24.293Z,86.62
2022-08-25T23:59:26.586Z,86.50
